Time;durP1;ratioP1;P1;durP2;ratioP2;P2;SDS_P1;SDS_P2;PMS_P1;PMS_P2;Temp;Humidity;BMP_temperature;BMP_pressure;BME280_temperature;BME280_humidity;BME280_pressure;Samples;Min_cycle;Max_cycle;Signal;HPM_P1;HPM_P2
2023/01/04 00:01:14;;;;;;;11.85;5.70;;;4.00;99.90;;;;;;5068153;28;20382;-57
2023/01/04 00:03:40;;;;;;;14.32;5.72;;;4.00;99.90;;;;;;5064159;28;20493;-52
2023/01/04 00:06:07;;;;;;;12.50;5.32;;;3.80;1.00;;;;;;5067066;28;20881;-56
2023/01/04 00:08:33;;;;;;;11.90;6.05;;;3.80;85.20;;;;;;5066536;28;20406;-52
2023/01/04 00:11:04;;;;;;;12.90;4.85;;;3.70;91.60;;;;;;5067433;28;20467;-52
2023/01/04 00:13:30;;;;;;;11.23;5.00;;;3.70;74.30;;;;;;5068552;28;20809;-52
2023/01/04 00:15:56;;;;;;;11.30;5.20;;;3.60;38.50;;;;;;5068768;28;20387;-52
2023/01/04 00:18:21;;;;;;;10.40;4.95;;;3.60;1.00;;;;;;5068348;28;20721;-54
2023/01/04 00:20:47;;;;;;;13.20;5.50;;;4.50;1.00;;;;;;5069295;28;20380;-52
2023/01/04 00:23:12;;;;;;;12.37;5.37;;;3.50;1.00;;;;;;5068075;28;20895;-52
2023/01/04 00:25:38;;;;;;;12.57;5.50;;;5.50;21.70;;;;;;5068692;28;20414;-52
2023/01/04 00:28:04;;;;;;;10.07;4.67;;;3.80;1.00;;;;;;5068994;28;20387;-51
2023/01/04 00:30:30;;;;;;;13.40;5.60;;;3.80;12.30;;;;;;5067845;28;21014;-52
2023/01/04 00:32:57;;;;;;;12.97;5.40;;;4.40;17.60;;;;;;5068655;28;20464;-52
2023/01/04 00:35:23;;;;;;;11.45;5.18;;;3.90;62.00;;;;;;5064038;28;20416;-51
2023/01/04 00:37:49;;;;;;;14.30;5.10;;;3.90;18.30;;;;;;5066867;28;20416;-51
2023/01/04 00:40:14;;;;;;;13.88;5.70;;;3.90;74.30;;;;;;5064617;28;20376;-52
2023/01/04 00:42:40;;;;;;;12.52;4.90;;;5.70;99.90;;;;;;5068054;28;20734;-52
2023/01/04 00:45:06;;;;;;;10.53;5.53;;;4.00;99.90;;;;;;5065722;28;20896;-51
2023/01/04 00:47:32;;;;;;;14.33;5.93;;;4.00;99.90;;;;;;5071229;28;20504;-51
2023/01/04 00:49:58;;;;;;;12.77;5.73;;;4.00;99.90;;;;;;5070634;28;20480;-51
2023/01/04 00:52:24;;;;;;;13.35;5.68;;;4.00;93.30;;;;;;5069943;28;20450;-51
2023/01/04 00:54:49;;;;;;;12.70;6.18;;;3.90;19.80;;;;;;5072413;28;20470;-51
2023/01/04 00:57:15;;;;;;;11.02;5.40;;;3.80;67.40;;;;;;5071546;28;20376;-51
2023/01/04 00:59:40;;;;;;;12.80;5.93;;;5.20;52.60;;;;;;5054616;28;20399;-51
2023/01/04 01:02:06;;;;;;;12.02;5.70;;;5.40;70.60;;;;;;5071582;28;20399;-52
2023/01/04 01:04:31;;;;;;;11.93;5.77;;;3.60;1.00;;;;;;5072111;28;20514;-51
2023/01/04 01:06:57;;;;;;;10.95;5.35;;;3.70;37.80;;;;;;5071628;28;20383;-51
2023/01/04 01:09:23;;;;;;;14.32;6.30;;;5.70;99.90;;;;;;5071119;28;20849;-51
2023/01/04 01:11:50;;;;;;;13.57;6.10;;;5.80;99.90;;;;;;5071946;28;20479;-51
2023/01/04 01:14:19;;;;;;;12.83;6.33;;;4.00;99.90;;;;;;5071171;28;20391;-52
2023/01/04 01:16:45;;;;;;;14.77;6.60;;;4.00;92.20;;;;;;5071850;28;20385;-51
2023/01/04 01:19:10;;;;;;;13.75;6.22;;;4.00;99.90;;;;;;5071588;28;20748;-55
2023/01/04 01:21:36;;;;;;;12.80;5.82;;;4.00;99.90;;;;;;5071895;28;20402;-51
2023/01/04 01:24:02;;;;;;;13.70;5.97;;;3.90;91.90;;;;;;5071757;28;20395;-51
2023/01/04 01:26:28;;;;;;;14.82;6.10;;;3.80;99.90;;;;;;5070745;28;20387;-50
2023/01/04 01:28:54;;;;;;;14.32;5.97;;;3.90;99.90;;;;;;5072303;28;20380;-51
2023/01/04 01:31:26;;;;;;;14.30;6.40;;;4.00;99.90;;;;;;5071715;28;20373;-51
2023/01/04 01:33:53;;;;;;;13.45;6.20;;;3.90;99.90;;;;;;5053354;28;20407;-50
2023/01/04 01:36:20;;;;;;;13.93;6.35;;;3.80;99.90;;;;;;5056331;28;20405;-51
2023/01/04 01:38:46;;;;;;;16.30;6.57;;;3.90;99.90;;;;;;5052241;28;20382;-51
2023/01/04 01:41:25;;;;;;;13.57;6.55;;;5.50;99.90;;;;;;5051741;28;20393;-52
2023/01/04 01:43:53;;;;;;;12.77;6.43;;;3.90;99.90;;;;;;5051663;28;20848;-50
2023/01/04 01:46:27;;;;;;;14.25;6.63;;;4.00;99.90;;;;;;5051398;28;20480;-51
2023/01/04 01:48:59;;;;;;;15.05;6.78;;;4.10;99.90;;;;;;5050872;28;20815;-51
2023/01/04 01:51:27;;;;;;;15.43;6.50;;;4.00;99.90;;;;;;5051539;28;20381;-52
2023/01/04 01:54:04;;;;;;;12.82;6.25;;;6.30;99.90;;;;;;5052375;28;20886;-50
2023/01/04 01:56:32;;;;;;;15.05;6.95;;;4.00;99.90;;;;;;5066994;28;20560;-51
2023/01/04 01:58:58;;;;;;;13.23;6.40;;;3.90;99.90;;;;;;5072101;28;20383;-51
2023/01/04 02:01:24;;;;;;;15.68;6.82;;;3.90;99.90;;;;;;5070975;28;20384;-52
2023/01/04 02:03:51;;;;;;;15.85;6.60;;;5.80;99.90;;;;;;5071755;28;20644;-51
2023/01/04 02:06:23;;;;;;;14.90;6.80;;;3.80;99.90;;;;;;5071101;28;20581;-50
2023/01/04 02:08:48;;;;;;;14.70;7.25;;;5.60;99.90;;;;;;5071850;28;20878;-51
2023/01/04 02:11:14;;;;;;;15.05;6.15;;;3.70;99.90;;;;;;5069610;28;20446;-51
2023/01/04 02:16:47;;;;;;;11.82;5.50;;;5.50;99.90;;;;;;5071079;28;20379;-51
2023/01/04 02:19:12;;;;;;;17.05;8.02;;;3.70;99.90;;;;;;5070549;28;20387;-54
2023/01/04 02:22:02;;;;;;;15.63;7.03;;;5.80;99.90;;;;;;5071686;28;20737;-51
2023/01/04 02:25:00;;;;;;;12.10;5.88;;;3.50;99.90;;;;;;5070957;28;20403;-51
2023/01/04 02:27:38;;;;;;;11.35;4.93;;;3.50;99.90;;;;;;5070637;28;20872;-51
2023/01/04 02:30:36;;;;;;;14.52;5.28;;;3.50;99.90;;;;;;5071591;28;20388;-51
2023/01/04 02:33:11;;;;;;;13.50;5.00;;;3.60;99.90;;;;;;5071066;28;20397;-51
2023/01/04 02:35:54;;;;;;;11.00;5.00;;;3.60;99.90;;;;;;5070660;28;20441;-51
2023/01/04 02:38:22;;;;;;;12.55;4.75;;;5.90;99.90;;;;;;5070617;28;20379;-50
2023/01/04 02:41:15;;;;;;;11.10;5.00;;;5.20;99.90;;;;;;5071250;28;20380;-51
2023/01/04 02:46:36;;;;;;;11.60;4.53;;;5.90;99.90;;;;;;5070386;28;21035;-51
2023/01/04 02:51:46;;;;;;;11.95;4.80;;;4.10;99.90;;;;;;5070752;28;20433;-51
2023/01/04 02:54:24;;;;;;;10.73;4.13;;;4.10;99.90;;;;;;5070544;28;20384;-55
2023/01/04 02:57:23;;;;;;;11.07;4.90;;;4.30;99.90;;;;;;5070108;28;20455;-51
2023/01/04 03:00:21;;;;;;;12.05;5.40;;;4.20;99.90;;;;;;5070943;28;20471;-51
2023/01/04 03:08:33;;;;;;;12.02;6.05;;;3.60;99.90;;;;;;5069256;28;21045;-51
2023/01/04 03:13:55;;;;;;;12.82;5.90;;;3.20;99.90;;;;;;5069982;28;20439;-50
2023/01/04 03:16:24;;;;;;;12.13;5.43;;;5.20;99.90;;;;;;5069742;28;20387;-51
2023/01/04 03:18:53;;;;;;;14.63;6.00;;;3.10;99.90;;;;;;5070415;28;20446;-51
2023/01/04 03:21:22;;;;;;;13.32;6.07;;;3.00;99.90;;;;;;5069458;28;20799;-51
2023/01/04 03:35:26;;;;;;;12.38;5.90;;;3.00;99.90;;;;;;5069514;28;20760;-54
2023/01/04 03:50:13;;;;;;;8.82;3.60;;;3.90;1.00;;;;;;5070018;28;20459;-53
2023/01/04 03:52:40;;;;;;;10.93;4.05;;;5.50;99.90;;;;;;5069839;28;20837;-54
2023/01/04 03:55:08;;;;;;;10.35;3.78;;;4.20;99.90;;;;;;5070112;28;20414;-51
2023/01/04 03:57:35;;;;;;;8.98;3.20;;;4.30;99.90;;;;;;5069695;28;20411;-51
2023/01/04 04:00:08;;;;;;;7.75;3.20;;;5.40;99.90;;;;;;5070317;28;20413;-50
2023/01/04 04:02:35;;;;;;;9.47;3.60;;;4.50;99.90;;;;;;5069226;28;20380;-53
2023/01/04 04:10:29;;;;;;;8.23;3.40;;;4.50;4.10;;;;;;5068748;28;20444;-50
2023/01/04 04:12:54;;;;;;;7.90;3.10;;;4.50;70.00;;;;;;5069856;28;20513;-50
2023/01/04 04:15:20;;;;;;;7.33;3.10;;;4.60;1.00;;;;;;5068674;28;20881;-50
2023/01/04 04:17:45;;;;;;;8.67;3.30;;;5.20;1.00;;;;;;5069832;28;20501;-50
2023/01/04 04:20:11;;;;;;;9.88;4.00;;;4.60;4.00;;;;;;5069079;28;20376;-55
2023/01/04 04:22:38;;;;;;;9.73;4.28;;;4.70;1.00;;;;;;5067896;28;20427;-50
2023/01/04 04:25:04;;;;;;;12.57;5.18;;;4.70;1.00;;;;;;5069181;28;20419;-50
2023/01/04 04:27:29;;;;;;;12.63;5.40;;;4.80;99.90;;;;;;5068798;28;20411;-51
2023/01/04 04:29:55;;;;;;;11.27;5.00;;;4.80;1.00;;;;;;5069657;28;21236;-50
2023/01/04 04:32:20;;;;;;;11.15;4.72;;;4.80;99.90;;;;;;5068862;28;20879;-51
2023/01/04 04:34:46;;;;;;;11.20;4.70;;;6.10;1.00;;;;;;5069596;28;20502;-50
2023/01/04 04:37:12;;;;;;;13.17;4.40;;;4.60;99.90;;;;;;5069509;28;20380;-55
2023/01/04 04:39:37;;;;;;;9.80;3.80;;;6.50;99.90;;;;;;5068745;28;20706;-50
2023/01/04 04:42:03;;;;;;;8.90;3.53;;;4.70;99.90;;;;;;5068878;28;20399;-50
2023/01/04 04:44:28;;;;;;;8.38;3.10;;;5.40;99.90;;;;;;5067938;28;20426;-51
2023/01/04 04:46:54;;;;;;;6.57;2.03;;;6.50;99.90;;;;;;5069900;28;20380;-50
2023/01/04 04:49:20;;;;;;;5.10;1.60;;;5.00;1.00;;;;;;5069488;28;20394;-50
2023/01/04 04:51:46;;;;;;;7.20;2.20;;;5.10;1.00;;;;;;5069822;28;20367;-50
2023/01/04 04:54:16;;;;;;;5.75;1.65;;;5.30;1.00;;;;;;5069201;28;20398;-55
2023/01/04 04:56:41;;;;;;;5.35;1.70;;;5.40;99.90;;;;;;5069869;28;20436;-50
2023/01/04 04:59:07;;;;;;;4.90;1.30;;;6.30;99.90;;;;;;5069677;28;20775;-50
2023/01/04 05:01:33;;;;;;;5.97;1.40;;;7.20;99.90;;;;;;5069130;28;20733;-50
2023/01/04 05:03:58;;;;;;;4.90;1.35;;;5.50;99.90;;;;;;5069779;28;20415;-51
2023/01/04 05:06:24;;;;;;;6.80;1.90;;;5.60;99.90;;;;;;5068954;28;20444;-50
2023/01/04 05:08:50;;;;;;;5.47;1.58;;;5.70;1.00;;;;;;5069662;28;20925;-50
2023/01/04 05:11:16;;;;;;;5.45;1.40;;;5.80;1.00;;;;;;5068505;28;20868;-50
2023/01/04 05:13:41;;;;;;;5.60;1.60;;;5.90;99.90;;;;;;5069713;28;20371;-52
2023/01/04 05:16:13;;;;;;;5.50;1.30;;;6.20;99.90;;;;;;5069591;28;20411;-50
2023/01/04 05:18:38;;;;;;;5.20;1.50;;;7.70;99.90;;;;;;5069182;28;20854;-50
2023/01/04 05:21:04;;;;;;;5.17;1.40;;;5.90;99.90;;;;;;5069070;28;20407;-50
2023/01/04 05:23:30;;;;;;;7.10;1.20;;;5.90;99.90;;;;;;5068571;28;20404;-50
2023/01/04 05:25:58;;;;;;;5.47;1.50;;;7.00;99.90;;;;;;5061631;28;20889;-51
2023/01/04 05:28:24;;;;;;;4.82;1.10;;;6.10;99.90;;;;;;5053434;28;20444;-50
2023/01/04 05:30:55;;;;;;;4.65;1.00;;;6.20;99.90;;;;;;5048731;28;20381;-50
2023/01/04 05:33:29;;;;;;;5.18;1.08;;;6.30;1.00;;;;;;5050665;28;20393;-50
2023/01/04 05:35:56;;;;;;;4.80;1.10;;;6.40;99.90;;;;;;5052257;28;20417;-50
2023/01/04 05:38:23;;;;;;;5.53;1.17;;;6.50;1.00;;;;;;5051678;28;20451;-50
2023/01/04 05:40:49;;;;;;;5.00;1.20;;;6.50;1.00;;;;;;5052288;28;20393;-49
2023/01/04 05:43:17;;;;;;;4.40;0.95;;;6.50;1.00;;;;;;5051506;28;20385;-56
2023/01/04 05:45:45;;;;;;;4.60;1.00;;;6.50;1.00;;;;;;5052202;28;20405;-51
2023/01/04 05:48:11;;;;;;;5.07;1.23;;;6.50;1.00;;;;;;5051986;28;20398;-51
2023/01/04 05:50:37;;;;;;;4.60;0.90;;;6.60;1.00;;;;;;5051414;28;20396;-51
2023/01/04 05:53:03;;;;;;;4.20;0.75;;;6.70;99.90;;;;;;5063628;28;20452;-51
2023/01/04 05:55:29;;;;;;;5.07;1.02;;;6.70;58.80;;;;;;5079506;28;20423;-51
2023/01/04 05:57:55;;;;;;;5.47;1.20;;;6.80;1.00;;;;;;5092121;28;20456;-49
2023/01/04 06:00:20;;;;;;;6.07;1.20;;;6.90;1.00;;;;;;5091430;28;20854;-49
2023/01/04 06:02:46;;;;;;;6.20;0.90;;;6.90;1.00;;;;;;5092391;28;20370;-49
2023/01/04 06:05:12;;;;;;;5.70;1.30;;;7.00;1.00;;;;;;5091602;28;20421;-49
2023/01/04 06:07:39;;;;;;;4.22;0.70;;;7.00;99.90;;;;;;5091233;28;20405;-49
2023/01/04 06:10:10;;;;;;;4.60;1.00;;;7.00;1.00;;;;;;5092066;28;20374;-50
2023/01/04 06:12:37;;;;;;;4.85;0.85;;;7.00;99.90;;;;;;5091098;28;20366;-49
2023/01/04 06:15:03;;;;;;;5.03;1.20;;;7.10;99.90;;;;;;5092034;28;20406;-51
2023/01/04 06:17:28;;;;;;;6.90;1.27;;;7.00;99.90;;;;;;5091292;28;20472;-49
2023/01/04 06:19:54;;;;;;;5.70;1.10;;;7.10;99.90;;;;;;5091728;28;20382;-49
2023/01/04 06:22:20;;;;;;;5.47;1.20;;;8.90;99.90;;;;;;5090774;28;20789;-50
2023/01/04 06:24:45;;;;;;;4.72;1.15;;;7.50;1.00;;;;;;5091408;28;20558;-49
2023/01/04 06:27:11;;;;;;;4.00;0.60;;;7.00;1.00;;;;;;5091438;28;20730;-49
2023/01/04 06:29:36;;;;;;;5.32;1.20;;;7.00;1.00;;;;;;5091004;28;20406;-49
2023/01/04 06:32:02;;;;;;;5.00;1.20;;;7.10;99.90;;;;;;5091789;28;20387;-49
2023/01/04 06:34:28;;;;;;;5.57;1.00;;;7.20;99.90;;;;;;5090628;28;20484;-50
2023/01/04 06:36:53;;;;;;;5.05;1.05;;;7.20;99.90;;;;;;5091676;28;20393;-49
2023/01/04 06:39:19;;;;;;;4.80;1.30;;;7.20;99.90;;;;;;5090818;28;20468;-49
2023/01/04 06:41:45;;;;;;;4.82;1.00;;;7.20;99.90;;;;;;5091048;28;20399;-49
2023/01/04 06:44:10;;;;;;;4.80;1.10;;;7.20;99.90;;;;;;5090240;28;20398;-51
2023/01/04 06:46:36;;;;;;;4.40;1.00;;;7.30;97.50;;;;;;5090994;28;20378;-49
2023/01/04 06:49:02;;;;;;;4.30;0.80;;;8.40;99.90;;;;;;5091234;28;20400;-49
2023/01/04 06:51:28;;;;;;;7.33;1.30;;;7.20;99.10;;;;;;5090458;28;20797;-49
2023/01/04 06:53:53;;;;;;;5.47;1.20;;;7.20;99.90;;;;;;5091198;28;20435;-49
2023/01/04 06:56:19;;;;;;;5.75;1.33;;;7.20;99.90;;;;;;5090352;28;20374;-49
2023/01/04 06:58:45;;;;;;;4.90;1.10;;;7.20;99.90;;;;;;5090824;28;20386;-50
2023/01/04 07:01:10;;;;;;;5.25;1.15;;;8.20;99.90;;;;;;5091070;28;20924;-49
2023/01/04 07:03:36;;;;;;;5.73;1.20;;;8.40;99.90;;;;;;5082334;28;21644;-49
2023/01/04 07:06:06;;;;;;;5.80;1.20;;;7.20;99.90;;;;;;5065763;28;20506;-49
2023/01/04 07:08:33;;;;;;;4.45;0.82;;;7.20;99.90;;;;;;5070208;28;20411;-49
2023/01/04 07:10:58;;;;;;;5.03;1.10;;;7.10;99.90;;;;;;5070280;28;20471;-50
2023/01/04 07:13:24;;;;;;;4.45;0.90;;;8.80;99.90;;;;;;5069599;28;20498;-50
2023/01/04 07:15:49;;;;;;;5.10;0.93;;;7.20;99.90;;;;;;5070404;28;20848;-49
2023/01/04 07:18:15;;;;;;;4.70;0.80;;;7.20;99.90;;;;;;5069632;28;20383;-55
2023/01/04 07:20:41;;;;;;;5.97;1.10;;;7.20;99.90;;;;;;5067941;28;20829;-50
2023/01/04 07:23:07;;;;;;;4.50;0.80;;;8.80;99.90;;;;;;5066990;28;20418;-50
2023/01/04 07:25:33;;;;;;;5.13;0.93;;;7.30;99.90;;;;;;5077782;28;20443;-50
2023/01/04 07:27:58;;;;;;;4.97;0.98;;;7.40;99.40;;;;;;5090038;28;20890;-50
2023/01/04 07:30:24;;;;;;;4.23;0.70;;;7.40;97.40;;;;;;5089913;28;20389;-50
2023/01/04 07:32:54;;;;;;;5.50;0.60;;;8.10;99.90;;;;;;5090189;28;20374;-50
2023/01/04 07:35:20;;;;;;;6.03;1.00;;;7.30;99.90;;;;;;5088625;28;20405;-50
2023/01/04 07:37:46;;;;;;;5.78;1.25;;;7.20;56.70;;;;;;5090394;28;20473;-51
2023/01/04 07:40:11;;;;;;;6.27;1.00;;;7.20;31.40;;;;;;5077593;28;20470;-52
2023/01/04 07:42:38;;;;;;;7.60;1.00;;;7.30;99.90;;;;;;5068981;28;21056;-51
2023/01/04 07:45:04;;;;;;;6.00;1.10;;;7.20;99.90;;;;;;5069722;28;20416;-51
2023/01/04 07:47:30;;;;;;;4.90;0.82;;;7.20;1.00;;;;;;5069334;28;20411;-51
2023/01/04 07:49:56;;;;;;;4.30;0.80;;;7.20;1.00;;;;;;5069944;28;20536;-51
2023/01/04 07:52:22;;;;;;;4.30;0.90;;;7.30;99.90;;;;;;5069044;28;20786;-51
2023/01/04 07:54:47;;;;;;;4.43;0.90;;;7.20;99.90;;;;;;5071765;28;20387;-51
2023/01/04 07:57:13;;;;;;;4.30;1.00;;;8.10;1.00;;;;;;5089168;28;20381;-51
2023/01/04 07:59:39;;;;;;;4.40;0.90;;;7.30;1.00;;;;;;5089541;28;20409;-51
2023/01/04 08:02:05;;;;;;;5.05;1.00;;;7.30;1.00;;;;;;5089723;28;20382;-52
2023/01/04 08:04:30;;;;;;;5.07;1.13;;;7.30;1.00;;;;;;5088557;28;20433;-51
2023/01/04 08:06:56;;;;;;;4.60;0.90;;;7.20;1.00;;;;;;5071269;28;20421;-51
2023/01/04 08:09:22;;;;;;;5.70;1.00;;;8.30;91.60;;;;;;5088549;28;20386;-51
2023/01/04 08:11:47;;;;;;;5.03;1.00;;;7.40;1.00;;;;;;5089841;28;20386;-51
2023/01/04 08:14:13;;;;;;;4.93;1.10;;;7.40;1.00;;;;;;5077647;28;20872;-51
2023/01/04 08:16:41;;;;;;;6.40;1.10;;;7.50;1.00;;;;;;5068843;28;20867;-50
2023/01/04 08:19:19;;;;;;;4.67;0.90;;;7.50;99.90;;;;;;5051881;28;20729;-53
2023/01/04 08:21:46;;;;;;;6.90;1.05;;;7.40;99.90;;;;;;5069851;28;20379;-50
2023/01/04 08:24:16;;;;;;;4.60;0.75;;;7.40;1.00;;;;;;5069200;28;20411;-50
2023/01/04 08:26:42;;;;;;;4.35;0.80;;;7.30;99.90;;;;;;5087059;28;20379;-50
2023/01/04 08:29:09;;;;;;;5.80;0.80;;;8.30;1.00;;;;;;5089797;28;20396;-50
2023/01/04 08:31:34;;;;;;;5.55;1.02;;;7.50;1.00;;;;;;5088346;28;20385;-50
2023/01/04 08:34:02;;;;;;;4.80;0.80;;;7.40;99.90;;;;;;5089590;28;20381;-50
2023/01/04 08:36:30;;;;;;;4.10;0.60;;;7.50;62.70;;;;;;5088265;28;20407;-51
2023/01/04 08:39:01;;;;;;;4.60;0.85;;;7.60;1.00;;;;;;5089674;28;20435;-51
2023/01/04 08:41:28;;;;;;;4.10;0.80;;;7.70;1.00;;;;;;5088526;28;20472;-50
2023/01/04 08:43:54;;;;;;;4.90;0.60;;;9.50;1.00;;;;;;5089423;28;20371;-51
2023/01/04 08:46:19;;;;;;;5.53;0.80;;;7.60;1.00;;;;;;5088553;28;20470;-51
2023/01/04 08:48:45;;;;;;;4.40;0.70;;;7.60;1.00;;;;;;5089840;28;20382;-50
2023/01/04 08:51:14;;;;;;;5.23;0.60;;;7.70;1.00;;;;;;5088946;28;20572;-51
2023/01/04 08:53:40;;;;;;;4.50;0.80;;;7.70;99.90;;;;;;5088724;28;20843;-50
2023/01/04 08:56:07;;;;;;;5.47;0.90;;;7.80;99.90;;;;;;5068181;28;20386;-51
2023/01/04 08:58:34;;;;;;;4.20;0.70;;;7.70;99.90;;;;;;5088690;28;20874;-51
2023/01/04 09:01:04;;;;;;;5.63;1.08;;;7.60;99.90;;;;;;5089469;28;20460;-50
2023/01/04 09:03:30;;;;;;;5.20;0.70;;;7.70;99.90;;;;;;5088575;28;20780;-51
2023/01/04 09:06:11;;;;;;;5.60;0.65;;;8.90;99.90;;;;;;5089341;28;20463;-52
2023/01/04 09:08:38;;;;;;;5.10;0.80;;;7.70;99.90;;;;;;5091350;28;20382;-51
2023/01/04 09:11:12;;;;;;;6.43;0.65;;;7.80;99.90;;;;;;5092894;28;20391;-50
2023/01/04 09:13:38;;;;;;;4.38;0.60;;;7.70;99.90;;;;;;5085288;28;20451;-50
2023/01/04 09:16:07;;;;;;;4.20;0.60;;;7.90;99.90;;;;;;5072680;28;20472;-51
2023/01/04 09:18:33;;;;;;;4.47;0.77;;;7.90;99.90;;;;;;5071790;28;20391;-52
2023/01/04 09:21:03;;;;;;;4.30;0.50;;;8.10;57.40;;;;;;5072077;28;20737;-51
2023/01/04 09:23:29;;;;;;;3.95;0.52;;;9.30;1.00;;;;;;5089973;28;20378;-52
2023/01/04 09:25:55;;;;;;;4.80;0.80;;;8.00;99.90;;;;;;5092417;28;20412;-51
2023/01/04 09:28:21;;;;;;;4.97;0.67;;;8.10;39.50;;;;;;5081166;28;20421;-51
2023/01/04 09:30:46;;;;;;;4.47;0.65;;;8.10;17.00;;;;;;5059655;28;21258;-51
2023/01/04 09:33:12;;;;;;;4.27;0.70;;;8.00;92.90;;;;;;5052330;28;20515;-52
2023/01/04 09:35:37;;;;;;;4.90;0.65;;;8.10;1.00;;;;;;5051548;28;20405;-51
2023/01/04 09:38:03;;;;;;;5.33;0.90;;;8.10;1.00;;;;;;5052836;28;20481;-51
2023/01/04 09:40:39;;;;;;;4.20;0.63;;;8.20;1.00;;;;;;5052055;28;20416;-51
2023/01/04 09:43:10;;;;;;;5.00;0.60;;;8.20;1.00;;;;;;5053782;28;20447;-51
2023/01/04 09:45:36;;;;;;;5.40;0.70;;;8.10;1.00;;;;;;5071403;28;21046;-51
2023/01/04 09:48:10;;;;;;;4.55;0.70;;;8.10;1.00;;;;;;5072256;28;20387;-51
2023/01/04 09:51:03;;;;;;;5.03;0.80;;;8.20;1.00;;;;;;5048294;28;20402;-53
2023/01/04 09:53:37;;;;;;;5.00;0.73;;;8.30;1.00;;;;;;5058903;28;20879;-51
2023/01/04 09:56:13;;;;;;;6.50;1.03;;;8.30;1.00;;;;;;5065273;28;20389;-51
2023/01/04 09:58:40;;;;;;;4.43;0.77;;;8.40;1.00;;;;;;5070327;28;20372;-51
2023/01/04 10:01:16;;;;;;;6.10;0.80;;;8.50;1.00;;;;;;5072144;28;20415;-51
2023/01/04 10:04:04;;;;;;;4.72;0.88;;;8.40;1.00;;;;;;5065107;28;20517;-51
2023/01/04 10:06:31;;;;;;;4.50;1.30;;;8.50;1.00;;;;;;5059295;28;20403;-52
2023/01/04 10:09:02;;;;;;;5.80;0.90;;;8.60;1.00;;;;;;5070682;28;20530;-51
2023/01/04 10:11:54;;;;;;;5.68;0.88;;;8.30;1.00;;;;;;5071329;28;20367;-51
2023/01/04 10:14:44;;;;;;;4.60;0.68;;;8.30;1.00;;;;;;5057383;28;20446;-56
2023/01/04 10:17:31;;;;;;;5.90;0.75;;;8.40;1.00;;;;;;5051420;28;20381;-51
2023/01/04 10:19:56;;;;;;;4.30;0.60;;;8.50;1.00;;;;;;5051629;28;20378;-51
2023/01/04 10:22:29;;;;;;;4.80;0.80;;;8.50;1.00;;;;;;5056500;28;20413;-52
2023/01/04 10:25:13;;;;;;;4.60;0.65;;;8.60;1.00;;;;;;5071125;28;20454;-51
2023/01/04 10:28:07;;;;;;;4.80;0.80;;;8.60;1.00;;;;;;5088991;28;20429;-53
2023/01/04 10:31:01;;;;;;;5.35;1.00;;;8.60;1.00;;;;;;5070841;28;20453;-51
2023/01/04 10:33:36;;;;;;;4.20;0.80;;;8.60;1.00;;;;;;5050650;28;20385;-51
2023/01/04 10:36:05;;;;;;;5.03;0.90;;;8.80;1.00;;;;;;5051941;28;20437;-51
2023/01/04 10:38:35;;;;;;;10.00;1.00;;;8.90;1.00;;;;;;5063180;28;20411;-51
2023/01/04 10:41:09;;;;;;;6.95;1.00;;;8.80;1.00;;;;;;5069944;28;20384;-52
2023/01/04 10:43:55;;;;;;;4.72;0.70;;;8.80;1.00;;;;;;5066816;28;20411;-52
2023/01/04 10:46:28;;;;;;;5.43;0.90;;;11.00;1.00;;;;;;5050719;28;20484;-55
2023/01/04 10:49:16;;;;;;;6.13;0.63;;;9.30;1.00;;;;;;5056256;28;20389;-51
2023/01/04 10:52:16;;;;;;;5.07;0.90;;;9.20;1.00;;;;;;5056352;28;20536;-51
2023/01/04 10:54:57;;;;;;;5.15;0.88;;;9.10;1.00;;;;;;5050812;28;20449;-51
2023/01/04 10:57:25;;;;;;;5.10;0.80;;;9.40;1.00;;;;;;5066004;28;20395;-52
2023/01/04 11:00:01;;;;;;;4.90;0.80;;;9.40;1.00;;;;;;5059072;28;20793;-52
2023/01/04 11:02:51;;;;;;;4.50;0.80;;;9.40;1.00;;;;;;5060392;28;20510;-51
2023/01/04 11:05:25;;;;;;;4.53;0.60;;;9.40;1.00;;;;;;5069235;28;20434;-56
2023/01/04 11:07:59;;;;;;;4.85;0.77;;;9.50;1.00;;;;;;5065636;28;20458;-51
2023/01/04 11:10:36;;;;;;;4.70;0.60;;;9.50;1.00;;;;;;5050024;28;20473;-51
2023/01/04 11:13:02;;;;;;;4.80;0.80;;;9.60;99.90;;;;;;5058657;28;20376;-51
2023/01/04 11:15:29;;;;;;;4.87;0.60;;;9.70;1.00;;;;;;5070153;28;20391;-51
2023/01/04 11:17:56;;;;;;;5.20;0.98;;;9.60;99.90;;;;;;5049513;28;20819;-52
2023/01/04 11:20:22;;;;;;;5.60;0.77;;;9.60;99.90;;;;;;5053338;28;20398;-51
2023/01/04 11:22:54;;;;;;;4.40;0.60;;;9.60;99.90;;;;;;5070184;28;20383;-51
2023/01/04 11:25:22;;;;;;;4.70;0.60;;;9.60;99.90;;;;;;5075634;28;20405;-56
2023/01/04 11:27:53;;;;;;;5.13;0.60;;;9.60;99.90;;;;;;5076238;28;20671;-52
2023/01/04 11:30:22;;;;;;;4.40;0.70;;;9.60;99.90;;;;;;5058058;28;20402;-56
2023/01/04 11:33:01;;;;;;;5.10;1.02;;;9.60;99.90;;;;;;5062507;28;20376;-52
2023/01/04 11:35:40;;;;;;;4.60;0.70;;;9.60;99.90;;;;;;5069000;28;20794;-50
2023/01/04 11:38:12;;;;;;;5.72;0.88;;;9.50;99.90;;;;;;5069426;28;20475;-50
2023/01/04 11:40:40;;;;;;;4.50;0.70;;;9.60;99.90;;;;;;5052391;28;20393;-51
2023/01/04 11:43:15;;;;;;;4.50;0.70;;;10.10;99.90;;;;;;5063386;28;20376;-52
2023/01/04 11:45:52;;;;;;;5.45;0.98;;;9.60;99.90;;;;;;5062269;28;20468;-51
2023/01/04 11:48:18;;;;;;;4.53;0.52;;;9.60;99.90;;;;;;5046819;28;20404;-56
2023/01/04 11:50:46;;;;;;;4.53;0.60;;;8.90;99.90;;;;;;5068843;28;20873;-52
2023/01/04 11:53:23;;;;;;;4.10;0.60;;;9.60;99.90;;;;;;5066231;28;20899;-52
2023/01/04 11:55:50;;;;;;;4.53;0.80;;;9.60;99.90;;;;;;5066483;28;20414;-51
2023/01/04 11:58:18;;;;;;;4.20;0.60;;;9.70;99.90;;;;;;5065702;28;20487;-51
2023/01/04 12:00:53;;;;;;;5.35;1.00;;;9.70;99.90;;;;;;5067141;28;20387;-53
2023/01/04 12:03:37;;;;;;;5.40;0.60;;;9.60;99.90;;;;;;5065183;28;20483;-56
2023/01/04 12:06:12;;;;;;;5.40;0.70;;;9.70;99.90;;;;;;5067663;28;20415;-51
2023/01/04 12:08:38;;;;;;;5.00;0.70;;;9.70;99.90;;;;;;5065287;28;20396;-51
2023/01/04 12:11:05;;;;;;;6.00;0.70;;;9.70;99.90;;;;;;5068160;28;20408;-51
2023/01/04 12:13:32;;;;;;;5.85;0.60;;;9.70;99.90;;;;;;5058445;28;20418;-52
2023/01/04 12:16:02;;;;;;;6.10;0.80;;;9.60;99.90;;;;;;5066542;28;20430;-53
2023/01/04 12:18:34;;;;;;;5.10;1.00;;;9.60;99.90;;;;;;5048759;28;20440;-51
2023/01/04 12:21:01;;;;;;;5.20;0.60;;;9.70;99.90;;;;;;5049358;28;20435;-51
2023/01/04 12:23:27;;;;;;;4.30;0.60;;;9.70;99.90;;;;;;5049044;28;20386;-51
2023/01/04 12:25:53;;;;;;;4.10;0.60;;;9.90;99.90;;;;;;5049526;28;20871;-51
2023/01/04 12:28:38;;;;;;;6.30;0.80;;;9.90;99.90;;;;;;5049283;28;20826;-56
2023/01/04 12:31:19;;;;;;;5.47;0.70;;;9.90;99.90;;;;;;5049478;28;20451;-51
2023/01/04 12:33:46;;;;;;;5.07;0.70;;;10.00;99.90;;;;;;5049100;28;20382;-52
2023/01/04 12:36:13;;;;;;;5.20;0.70;;;10.00;99.90;;;;;;5049177;28;20414;-52
2023/01/04 12:38:54;;;;;;;5.30;0.70;;;9.90;99.90;;;;;;5049288;28;20754;-52
2023/01/04 12:41:34;;;;;;;4.20;0.60;;;9.80;1.00;;;;;;5049476;28;20443;-53
2023/01/04 12:44:01;;;;;;;4.72;1.00;;;9.90;1.00;;;;;;5091540;28;20472;-51
2023/01/04 12:49:28;;;;;;;6.60;0.63;;;9.90;1.00;;;;;;5093720;28;20654;-51
2023/01/04 12:52:06;;;;;;;4.90;0.70;;;9.90;1.00;;;;;;5076129;28;20415;-52
2023/01/04 12:54:48;;;;;;;4.40;0.60;;;10.00;1.00;;;;;;5092842;28;20474;-52
2023/01/04 12:57:16;;;;;;;4.20;0.60;;;10.00;1.00;;;;;;5094141;28;20895;-52
2023/01/04 13:00:10;;;;;;;4.70;0.70;;;10.10;1.00;;;;;;5093509;28;20473;-53
2023/01/04 13:02:49;;;;;;;4.40;0.80;;;10.00;1.00;;;;;;5093488;28;20846;-54
2023/01/04 13:05:17;;;;;;;8.10;0.70;;;10.10;1.00;;;;;;5093084;28;20860;-51
2023/01/04 13:07:52;;;;;;;4.10;0.50;;;10.00;1.00;;;;;;5092878;28;20957;-51
2023/01/04 13:10:27;;;;;;;4.30;0.60;;;10.10;1.00;;;;;;5093586;28;20382;-53
2023/01/04 13:13:06;;;;;;;4.65;0.50;;;10.20;1.00;;;;;;5092283;28;20409;-53
2023/01/04 13:15:58;;;;;;;4.38;0.55;;;10.30;1.00;;;;;;5071850;28;20870;-53
2023/01/04 13:18:53;;;;;;;4.90;0.60;;;10.30;1.00;;;;;;5071996;28;20445;-53
2023/01/04 13:21:40;;;;;;;4.25;0.70;;;10.30;1.00;;;;;;5054577;28;20409;-56
2023/01/04 13:24:26;;;;;;;5.00;0.60;;;10.40;1.00;;;;;;5072380;28;20853;-52
2023/01/04 13:26:53;;;;;;;4.20;0.50;;;10.50;1.00;;;;;;5072452;28;20387;-51
2023/01/04 13:29:26;;;;;;;5.22;0.90;;;10.50;1.00;;;;;;5072009;28;20861;-58
2023/01/04 13:31:56;;;;;;;4.60;0.50;;;10.40;1.00;;;;;;5072457;28;20376;-56
2023/01/04 13:34:32;;;;;;;5.03;0.70;;;10.50;1.00;;;;;;5071596;28;20406;-58
2023/01/04 13:37:24;;;;;;;5.20;0.70;;;10.60;1.00;;;;;;5070825;28;20481;-51
2023/01/04 13:39:58;;;;;;;4.40;0.50;;;10.60;1.00;;;;;;5071083;28;20514;-51
2023/01/04 13:42:30;;;;;;;4.88;0.60;;;10.70;1.00;;;;;;5070327;28;20387;-52
2023/01/04 13:45:17;;;;;;;7.20;0.90;;;10.70;1.00;;;;;;5070702;28;20512;-51
2023/01/04 13:47:44;;;;;;;4.65;0.65;;;10.70;1.00;;;;;;5070350;28;21264;-52
2023/01/04 13:50:35;;;;;;;4.50;0.60;;;10.80;1.00;;;;;;5070947;28;20395;-51
2023/01/04 13:53:02;;;;;;;4.60;0.70;;;10.80;1.00;;;;;;5070431;28;20429;-51
2023/01/04 13:55:30;;;;;;;4.10;0.50;;;10.80;99.90;;;;;;5070116;28;20918;-51
2023/01/04 13:58:03;;;;;;;5.00;0.65;;;10.90;99.90;;;;;;5070797;28;20371;-52
2023/01/04 14:00:31;;;;;;;4.30;0.60;;;10.90;99.90;;;;;;5069579;28;20460;-51
2023/01/04 14:03:09;;;;;;;5.87;0.80;;;11.00;99.90;;;;;;5070751;28;20529;-52